Terminal Aerodrome Forecast
Issued by NWS Bismarck, ND

Home | Current Version | Previous Version | Graphics & Text | Print | Product List | Glossary On
Versions: 1 2 3 4 5 6 7 8 9 10 11 12 13
898
FTUS43 KBIS 211725 AAA
TAFISN
TAF AMD
KISN 211725Z 2117/2218 29011KT P6SM BKN100
     FM212300 34016G24KT P6SM VCTS BKN090CB
     FM220100 33013G21KT P6SM BKN090
     FM220300 33009KT P6SM BKN090
     FM221600 36011G19KT P6SM BKN070=

USA.gov is the U.S. government's official web portal to all federal, state and local government web resources and services.